sensor_id;sensor_type;location;lat;lon;timestamp;P1;durP1;ratioP1;P2;durP2;ratioP2
34184;SDS011;20454;48.100;11.776;2022-08-04T00:01:21;1.75;;;1.65;;
34184;SDS011;20454;48.100;11.776;2022-08-04T00:04:34;1.55;;;1.45;;
34184;SDS011;20454;48.100;11.776;2022-08-04T00:07:25;1.83;;;1.58;;
34184;SDS011;20454;48.100;11.776;2022-08-04T00:10:04;1.92;;;1.83;;
34184;SDS011;20454;48.100;11.776;2022-08-04T00:12:32;1.55;;;1.45;;
34184;SDS011;20454;48.100;11.776;2022-08-04T00:15:03;2.25;;;1.45;;
34184;SDS011;20454;48.100;11.776;2022-08-04T00:17:31;1.60;;;1.50;;
34184;SDS011;20454;48.100;11.776;2022-08-04T00:20:04;2.00;;;1.60;;
34184;SDS011;20454;48.100;11.776;2022-08-04T00:22:33;1.67;;;1.58;;
34184;SDS011;20454;48.100;11.776;2022-08-04T00:25:03;1.50;;;1.40;;
34184;SDS011;20454;48.100;11.776;2022-08-04T00:27:30;1.63;;;1.35;;
34184;SDS011;20454;48.100;11.776;2022-08-04T00:29:57;1.70;;;1.60;;
34184;SDS011;20454;48.100;11.776;2022-08-04T00:32:26;2.33;;;1.83;;
34184;SDS011;20454;48.100;11.776;2022-08-04T00:34:56;1.60;;;1.50;;
34184;SDS011;20454;48.100;11.776;2022-08-04T00:37:24;2.58;;;1.55;;
34184;SDS011;20454;48.100;11.776;2022-08-04T00:39:51;2.17;;;1.50;;
34184;SDS011;20454;48.100;11.776;2022-08-04T00:56:15;1.55;;;1.45;;
34184;SDS011;20454;48.100;11.776;2022-08-04T01:08:16;1.95;;;1.85;;
34184;SDS011;20454;48.100;11.776;2022-08-04T01:14:17;1.45;;;1.35;;
34184;SDS011;20454;48.100;11.776;2022-08-04T01:20:09;1.95;;;1.83;;
34184;SDS011;20454;48.100;11.776;2022-08-04T01:22:54;1.77;;;1.67;;
34184;SDS011;20454;48.100;11.776;2022-08-04T01:31:49;2.22;;;1.95;;
34184;SDS011;20454;48.100;11.776;2022-08-04T01:40:17;1.92;;;1.83;;
34184;SDS011;20454;48.100;11.776;2022-08-04T01:42:45;1.95;;;1.50;;
34184;SDS011;20454;48.100;11.776;2022-08-04T01:45:16;1.75;;;1.65;;
34184;SDS011;20454;48.100;11.776;2022-08-04T01:47:47;1.90;;;1.67;;
34184;SDS011;20454;48.100;11.776;2022-08-04T01:50:18;3.85;;;2.17;;
34184;SDS011;20454;48.100;11.776;2022-08-04T01:52:45;1.92;;;1.77;;
34184;SDS011;20454;48.100;11.776;2022-08-04T01:55:14;2.45;;;1.95;;
34184;SDS011;20454;48.100;11.776;2022-08-04T01:57:43;1.92;;;1.77;;
34184;SDS011;20454;48.100;11.776;2022-08-04T02:00:13;1.80;;;1.70;;
34184;SDS011;20454;48.100;11.776;2022-08-04T04:34:15;2.25;;;2.15;;
34184;SDS011;20454;48.100;11.776;2022-08-04T04:39:35;2.10;;;1.90;;
34184;SDS011;20454;48.100;11.776;2022-08-04T04:45:59;2.75;;;1.83;;
34184;SDS011;20454;48.100;11.776;2022-08-04T04:51:42;2.13;;;1.85;;
34184;SDS011;20454;48.100;11.776;2022-08-04T04:57:18;2.03;;;1.92;;
34184;SDS011;20454;48.100;11.776;2022-08-04T04:59:47;2.00;;;1.83;;
34184;SDS011;20454;48.100;11.776;2022-08-04T05:02:49;2.20;;;2.00;;
34184;SDS011;20454;48.100;11.776;2022-08-04T05:05:36;1.60;;;1.50;;
34184;SDS011;20454;48.100;11.776;2022-08-04T05:09:17;2.17;;;1.95;;
34184;SDS011;20454;48.100;11.776;2022-08-04T05:18:31;1.67;;;1.58;;
34184;SDS011;20454;48.100;11.776;2022-08-04T05:23:55;2.05;;;1.95;;
34184;SDS011;20454;48.100;11.776;2022-08-04T05:26:31;1.70;;;1.60;;
34184;SDS011;20454;48.100;11.776;2022-08-04T05:29:05;2.28;;;2.17;;
34184;SDS011;20454;48.100;11.776;2022-08-04T05:31:39;1.90;;;1.80;;
34184;SDS011;20454;48.100;11.776;2022-08-04T05:34:13;2.08;;;1.92;;
34184;SDS011;20454;48.100;11.776;2022-08-04T05:36:51;1.60;;;1.50;;
34184;SDS011;20454;48.100;11.776;2022-08-04T05:39:29;1.85;;;1.75;;
34184;SDS011;20454;48.100;11.776;2022-08-04T05:42:01;2.33;;;2.13;;
34184;SDS011;20454;48.100;11.776;2022-08-04T05:44:28;2.08;;;1.90;;
34184;SDS011;20454;48.100;11.776;2022-08-04T05:46:57;2.65;;;2.45;;
34184;SDS011;20454;48.100;11.776;2022-08-04T05:49:24;1.60;;;1.50;;
34184;SDS011;20454;48.100;11.776;2022-08-04T05:51:53;2.10;;;2.00;;
34184;SDS011;20454;48.100;11.776;2022-08-04T05:54:24;2.20;;;2.10;;
34184;SDS011;20454;48.100;11.776;2022-08-04T05:56:52;1.70;;;1.60;;
34184;SDS011;20454;48.100;11.776;2022-08-04T05:59:20;5.45;;;2.50;;
34184;SDS011;20454;48.100;11.776;2022-08-04T06:01:49;3.60;;;2.20;;
34184;SDS011;20454;48.100;11.776;2022-08-04T06:04:18;2.40;;;2.28;;
34184;SDS011;20454;48.100;11.776;2022-08-04T06:06:47;2.17;;;2.00;;
34184;SDS011;20454;48.100;11.776;2022-08-04T06:09:13;2.40;;;2.20;;
34184;SDS011;20454;48.100;11.776;2022-08-04T06:11:39;4.00;;;3.60;;
34184;SDS011;20454;48.100;11.776;2022-08-04T06:14:07;2.95;;;2.75;;
34184;SDS011;20454;48.100;11.776;2022-08-04T06:16:38;2.22;;;2.13;;
34184;SDS011;20454;48.100;11.776;2022-08-04T06:19:08;2.47;;;2.28;;
34184;SDS011;20454;48.100;11.776;2022-08-04T06:21:38;2.35;;;2.15;;
34184;SDS011;20454;48.100;11.776;2022-08-04T06:24:09;2.17;;;2.08;;
34184;SDS011;20454;48.100;11.776;2022-08-04T06:26:41;2.97;;;2.67;;
34184;SDS011;20454;48.100;11.776;2022-08-04T06:29:10;2.42;;;2.22;;
34184;SDS011;20454;48.100;11.776;2022-08-04T06:31:52;2.33;;;2.22;;
34184;SDS011;20454;48.100;11.776;2022-08-04T06:34:23;2.60;;;2.30;;
34184;SDS011;20454;48.100;11.776;2022-08-04T06:36:51;2.15;;;1.95;;
34184;SDS011;20454;48.100;11.776;2022-08-04T06:39:18;3.72;;;2.10;;
34184;SDS011;20454;48.100;11.776;2022-08-04T06:41:49;2.63;;;2.00;;
34184;SDS011;20454;48.100;11.776;2022-08-04T06:44:17;2.47;;;2.28;;
34184;SDS011;20454;48.100;11.776;2022-08-04T06:46:45;2.25;;;2.15;;
34184;SDS011;20454;48.100;11.776;2022-08-04T06:49:12;2.25;;;2.13;;
34184;SDS011;20454;48.100;11.776;2022-08-04T06:51:39;2.25;;;2.05;;
34184;SDS011;20454;48.100;11.776;2022-08-04T06:54:06;2.55;;;2.10;;
34184;SDS011;20454;48.100;11.776;2022-08-04T06:56:35;4.38;;;3.97;;
34184;SDS011;20454;48.100;11.776;2022-08-04T06:59:04;4.20;;;3.38;;
34184;SDS011;20454;48.100;11.776;2022-08-04T07:01:30;2.58;;;2.38;;
34184;SDS011;20454;48.100;11.776;2022-08-04T07:03:59;1.88;;;1.77;;
34184;SDS011;20454;48.100;11.776;2022-08-04T07:06:25;2.22;;;1.83;;
34184;SDS011;20454;48.100;11.776;2022-08-04T07:08:51;1.83;;;1.73;;
34184;SDS011;20454;48.100;11.776;2022-08-04T07:11:18;2.47;;;2.05;;
34184;SDS011;20454;48.100;11.776;2022-08-04T07:13:45;1.80;;;1.70;;
34184;SDS011;20454;48.100;11.776;2022-08-04T07:16:12;1.95;;;1.85;;
34184;SDS011;20454;48.100;11.776;2022-08-04T07:18:39;1.52;;;1.42;;
34184;SDS011;20454;48.100;11.776;2022-08-04T07:21:05;2.35;;;2.00;;
34184;SDS011;20454;48.100;11.776;2022-08-04T07:23:32;2.28;;;2.13;;
34184;SDS011;20454;48.100;11.776;2022-08-04T07:25:57;2.67;;;1.88;;
34184;SDS011;20454;48.100;11.776;2022-08-04T07:28:26;2.70;;;2.50;;
34184;SDS011;20454;48.100;11.776;2022-08-04T07:30:53;2.40;;;2.20;;
34184;SDS011;20454;48.100;11.776;2022-08-04T07:33:22;2.92;;;2.35;;
34184;SDS011;20454;48.100;11.776;2022-08-04T07:35:50;2.08;;;1.98;;
34184;SDS011;20454;48.100;11.776;2022-08-04T07:38:20;1.42;;;1.30;;
34184;SDS011;20454;48.100;11.776;2022-08-04T07:40:46;1.95;;;1.85;;
34184;SDS011;20454;48.100;11.776;2022-08-04T07:43:15;2.53;;;2.33;;
34184;SDS011;20454;48.100;11.776;2022-08-04T07:45:41;2.22;;;2.13;;
34184;SDS011;20454;48.100;11.776;2022-08-04T07:48:08;2.70;;;1.77;;
34184;SDS011;20454;48.100;11.776;2022-08-04T07:50:35;2.45;;;2.25;;
34184;SDS011;20454;48.100;11.776;2022-08-04T07:53:02;2.05;;;1.88;;
34184;SDS011;20454;48.100;11.776;2022-08-04T07:55:29;1.63;;;1.52;;
34184;SDS011;20454;48.100;11.776;2022-08-04T10:25:41;1.55;;;1.45;;
34184;SDS011;20454;48.100;11.776;2022-08-04T10:29:17;1.30;;;1.20;;
34184;SDS011;20454;48.100;11.776;2022-08-04T10:31:34;1.38;;;1.27;;
34184;SDS011;20454;48.100;11.776;2022-08-04T10:34:18;1.73;;;1.30;;
34184;SDS011;20454;48.100;11.776;2022-08-04T10:37:13;3.53;;;0.93;;
34184;SDS011;20454;48.100;11.776;2022-08-04T10:39:54;1.00;;;0.98;;
34184;SDS011;20454;48.100;11.776;2022-08-04T10:43:01;1.42;;;1.33;;
34184;SDS011;20454;48.100;11.776;2022-08-04T10:46:04;3.08;;;1.02;;
34184;SDS011;20454;48.100;11.776;2022-08-04T10:48:55;2.08;;;1.00;;
34184;SDS011;20454;48.100;11.776;2022-08-04T10:54:49;2.58;;;0.85;;
34184;SDS011;20454;48.100;11.776;2022-08-04T10:57:27;2.92;;;1.95;;
34184;SDS011;20454;48.100;11.776;2022-08-04T11:00:09;1.65;;;1.23;;
34184;SDS011;20454;48.100;11.776;2022-08-04T11:02:42;1.58;;;1.35;;
34184;SDS011;20454;48.100;11.776;2022-08-04T11:08:24;1.08;;;1.00;;
34184;SDS011;20454;48.100;11.776;2022-08-04T11:16:43;0.90;;;0.90;;
34184;SDS011;20454;48.100;11.776;2022-08-04T11:19:36;0.95;;;0.82;;
34184;SDS011;20454;48.100;11.776;2022-08-04T11:22:26;1.10;;;0.98;;
34184;SDS011;20454;48.100;11.776;2022-08-04T11:24:54;1.73;;;1.13;;
34184;SDS011;20454;48.100;11.776;2022-08-04T11:27:39;3.28;;;0.90;;
34184;SDS011;20454;48.100;11.776;2022-08-04T11:30:24;3.13;;;0.88;;
34184;SDS011;20454;48.100;11.776;2022-08-04T11:41:38;1.00;;;1.00;;
34184;SDS011;20454;48.100;11.776;2022-08-04T11:44:40;1.48;;;0.90;;
34184;SDS011;20454;48.100;11.776;2022-08-04T11:47:28;0.80;;;0.80;;
34184;SDS011;20454;48.100;11.776;2022-08-04T11:50:10;3.00;;;1.10;;
34184;SDS011;20454;48.100;11.776;2022-08-04T11:52:44;4.13;;;0.82;;
34184;SDS011;20454;48.100;11.776;2022-08-04T11:55:12;1.00;;;1.00;;
34184;SDS011;20454;48.100;11.776;2022-08-04T11:57:45;3.03;;;0.90;;
34184;SDS011;20454;48.100;11.776;2022-08-04T12:00:13;1.20;;;1.08;;
34184;SDS011;20454;48.100;11.776;2022-08-04T12:05:46;1.17;;;1.10;;
34184;SDS011;20454;48.100;11.776;2022-08-04T12:08:28;1.08;;;0.70;;
34184;SDS011;20454;48.100;11.776;2022-08-04T12:11:15;1.40;;;1.30;;
34184;SDS011;20454;48.100;11.776;2022-08-04T12:16:54;0.80;;;0.80;;
34184;SDS011;20454;48.100;11.776;2022-08-04T12:19:36;1.90;;;1.10;;
34184;SDS011;20454;48.100;11.776;2022-08-04T12:22:22;2.70;;;1.10;;
34184;SDS011;20454;48.100;11.776;2022-08-04T12:27:45;1.35;;;1.00;;
34184;SDS011;20454;48.100;11.776;2022-08-04T12:30:35;0.93;;;0.93;;
34184;SDS011;20454;48.100;11.776;2022-08-04T12:33:30;0.85;;;0.85;;
34184;SDS011;20454;48.100;11.776;2022-08-04T12:36:50;1.42;;;1.30;;
34184;SDS011;20454;48.100;11.776;2022-08-04T12:38:58;2.70;;;0.80;;
34184;SDS011;20454;48.100;11.776;2022-08-04T12:41:33;2.45;;;1.27;;
34184;SDS011;20454;48.100;11.776;2022-08-04T12:44:06;1.83;;;1.27;;
34184;SDS011;20454;48.100;11.776;2022-08-04T12:46:36;4.88;;;1.65;;
34184;SDS011;20454;48.100;11.776;2022-08-04T12:49:04;4.53;;;1.33;;
34184;SDS011;20454;48.100;11.776;2022-08-04T12:51:38;0.80;;;0.80;;
34184;SDS011;20454;48.100;11.776;2022-08-04T12:54:07;1.15;;;0.98;;
34184;SDS011;20454;48.100;11.776;2022-08-04T12:56:34;1.73;;;1.00;;
34184;SDS011;20454;48.100;11.776;2022-08-04T12:59:07;1.38;;;1.27;;
34184;SDS011;20454;48.100;11.776;2022-08-04T13:01:36;1.30;;;1.20;;
34184;SDS011;20454;48.100;11.776;2022-08-04T13:04:11;1.00;;;1.00;;
34184;SDS011;20454;48.100;11.776;2022-08-04T13:06:42;1.40;;;1.17;;
34184;SDS011;20454;48.100;11.776;2022-08-04T13:09:17;1.25;;;1.15;;
34184;SDS011;20454;48.100;11.776;2022-08-04T13:11:52;1.10;;;1.00;;
34184;SDS011;20454;48.100;11.776;2022-08-04T13:14:23;3.65;;;0.98;;
34184;SDS011;20454;48.100;11.776;2022-08-04T13:16:59;1.33;;;1.00;;
34184;SDS011;20454;48.100;11.776;2022-08-04T13:19:26;1.55;;;0.80;;
34184;SDS011;20454;48.100;11.776;2022-08-04T13:21:53;2.38;;;0.93;;
34184;SDS011;20454;48.100;11.776;2022-08-04T13:24:22;2.78;;;0.80;;
34184;SDS011;20454;48.100;11.776;2022-08-04T13:26:59;1.42;;;1.17;;
34184;SDS011;20454;48.100;11.776;2022-08-04T13:29:40;1.33;;;0.80;;
34184;SDS011;20454;48.100;11.776;2022-08-04T13:32:08;1.02;;;0.70;;
34184;SDS011;20454;48.100;11.776;2022-08-04T13:34:40;1.00;;;0.90;;
34184;SDS011;20454;48.100;11.776;2022-08-04T13:37:08;0.77;;;0.77;;
34184;SDS011;20454;48.100;11.776;2022-08-04T13:39:35;0.95;;;0.80;;
34184;SDS011;20454;48.100;11.776;2022-08-04T13:42:08;1.85;;;1.13;;
34184;SDS011;20454;48.100;11.776;2022-08-04T13:44:36;1.25;;;0.80;;
34184;SDS011;20454;48.100;11.776;2022-08-04T13:47:05;2.90;;;1.10;;
34184;SDS011;20454;48.100;11.776;2022-08-04T13:52:03;4.80;;;0.70;;
34184;SDS011;20454;48.100;11.776;2022-08-04T13:54:38;3.42;;;0.98;;
34184;SDS011;20454;48.100;11.776;2022-08-04T13:57:11;1.20;;;1.10;;
34184;SDS011;20454;48.100;11.776;2022-08-04T13:59:44;1.52;;;1.42;;
34184;SDS011;20454;48.100;11.776;2022-08-04T14:02:31;0.85;;;0.73;;
34184;SDS011;20454;48.100;11.776;2022-08-04T14:05:23;2.22;;;0.90;;
34184;SDS011;20454;48.100;11.776;2022-08-04T14:07:57;0.88;;;0.75;;
34184;SDS011;20454;48.100;11.776;2022-08-04T14:10:54;2.15;;;1.00;;
34184;SDS011;20454;48.100;11.776;2022-08-04T14:13:30;1.95;;;0.90;;
34184;SDS011;20454;48.100;11.776;2022-08-04T14:15:57;1.00;;;1.00;;
34184;SDS011;20454;48.100;11.776;2022-08-04T14:18:24;1.50;;;1.15;;
34184;SDS011;20454;48.100;11.776;2022-08-04T14:21:06;1.35;;;1.25;;
34184;SDS011;20454;48.100;11.776;2022-08-04T14:26:26;1.60;;;1.50;;
34184;SDS011;20454;48.100;11.776;2022-08-04T14:29:07;1.30;;;1.20;;
34184;SDS011;20454;48.100;11.776;2022-08-04T14:31:41;1.30;;;1.20;;
34184;SDS011;20454;48.100;11.776;2022-08-04T14:34:07;1.60;;;1.17;;
34184;SDS011;20454;48.100;11.776;2022-08-04T14:36:40;1.17;;;1.00;;
34184;SDS011;20454;48.100;11.776;2022-08-04T14:39:07;1.38;;;1.20;;
34184;SDS011;20454;48.100;11.776;2022-08-04T14:41:46;0.90;;;0.90;;
34184;SDS011;20454;48.100;11.776;2022-08-04T14:44:14;1.00;;;0.88;;
34184;SDS011;20454;48.100;11.776;2022-08-04T14:46:50;2.13;;;1.30;;
34184;SDS011;20454;48.100;11.776;2022-08-04T14:49:18;1.15;;;1.05;;
34184;SDS011;20454;48.100;11.776;2022-08-04T14:51:58;1.98;;;1.00;;
34184;SDS011;20454;48.100;11.776;2022-08-04T14:54:28;3.80;;;1.13;;
34184;SDS011;20454;48.100;11.776;2022-08-04T14:57:02;2.43;;;1.30;;
34184;SDS011;20454;48.100;11.776;2022-08-04T14:59:40;1.30;;;0.90;;
34184;SDS011;20454;48.100;11.776;2022-08-04T15:02:14;4.93;;;0.80;;
34184;SDS011;20454;48.100;11.776;2022-08-04T15:04:41;1.52;;;1.13;;
34184;SDS011;20454;48.100;11.776;2022-08-04T15:07:12;1.08;;;1.08;;
34184;SDS011;20454;48.100;11.776;2022-08-04T15:09:38;1.45;;;1.35;;
34184;SDS011;20454;48.100;11.776;2022-08-04T15:12:06;1.42;;;1.33;;
34184;SDS011;20454;48.100;11.776;2022-08-04T15:14:32;1.50;;;0.90;;
34184;SDS011;20454;48.100;11.776;2022-08-04T15:16:59;1.73;;;0.80;;
34184;SDS011;20454;48.100;11.776;2022-08-04T15:19:26;1037.40;;;950.38;;
34184;SDS011;20454;48.100;11.776;2022-08-04T15:21:52;1082.63;;;989.97;;
34184;SDS011;20454;48.100;11.776;2022-08-04T15:24:19;1080.32;;;989.80;;
34184;SDS011;20454;48.100;11.776;2022-08-04T15:26:48;1088.05;;;994.85;;
34184;SDS011;20454;48.100;11.776;2022-08-04T15:29:29;1104.72;;;999.90;;
34184;SDS011;20454;48.100;11.776;2022-08-04T15:32:04;1105.80;;;999.90;;
34184;SDS011;20454;48.100;11.776;2022-08-04T15:34:45;1065.72;;;980.63;;
34184;SDS011;20454;48.100;11.776;2022-08-04T15:37:30;1063.53;;;974.20;;
34184;SDS011;20454;48.100;11.776;2022-08-04T15:46:02;1007.53;;;922.00;;
34184;SDS011;20454;48.100;11.776;2022-08-04T15:48:29;995.95;;;911.67;;
34184;SDS011;20454;48.100;11.776;2022-08-04T15:53:29;993.78;;;909.72;;
34184;SDS011;20454;48.100;11.776;2022-08-04T15:56:02;1059.85;;;970.22;;
34184;SDS011;20454;48.100;11.776;2022-08-04T15:58:54;1089.00;;;995.00;;
34184;SDS011;20454;48.100;11.776;2022-08-04T16:01:20;1108.88;;;999.90;;
34184;SDS011;20454;48.100;11.776;2022-08-04T16:03:47;1152.07;;;999.90;;
34184;SDS011;20454;48.100;11.776;2022-08-04T16:57:54;219.82;;;203.27;;
34184;SDS011;20454;48.100;11.776;2022-08-04T19:02:56;968.35;;;883.35;;
34184;SDS011;20454;48.100;11.776;2022-08-04T19:05:22;944.85;;;858.95;;
34184;SDS011;20454;48.100;11.776;2022-08-04T19:07:47;926.88;;;843.65;;
34184;SDS011;20454;48.100;11.776;2022-08-04T19:10:13;946.17;;;863.05;;
34184;SDS011;20454;48.100;11.776;2022-08-04T19:12:39;971.17;;;885.55;;
34184;SDS011;20454;48.100;11.776;2022-08-04T19:15:05;965.65;;;881.47;;
34184;SDS011;20454;48.100;11.776;2022-08-04T19:17:31;943.90;;;860.97;;
34184;SDS011;20454;48.100;11.776;2022-08-04T19:19:57;1021.72;;;931.30;;
34184;SDS011;20454;48.100;11.776;2022-08-04T19:22:23;1028.60;;;938.63;;
34184;SDS011;20454;48.100;11.776;2022-08-04T19:24:49;1071.85;;;977.95;;
34184;SDS011;20454;48.100;11.776;2022-08-04T19:27:14;910.45;;;827.03;;
34184;SDS011;20454;48.100;11.776;2022-08-04T19:29:40;1092.90;;;995.97;;
34184;SDS011;20454;48.100;11.776;2022-08-04T19:32:06;1080.60;;;982.45;;
34184;SDS011;20454;48.100;11.776;2022-08-04T19:34:34;1073.55;;;977.38;;
34184;SDS011;20454;48.100;11.776;2022-08-04T19:37:00;1024.82;;;935.53;;
34184;SDS011;20454;48.100;11.776;2022-08-04T19:39:25;998.28;;;910.95;;
34184;SDS011;20454;48.100;11.776;2022-08-04T19:41:51;1006.75;;;918.85;;
34184;SDS011;20454;48.100;11.776;2022-08-04T19:44:17;990.00;;;903.45;;
34184;SDS011;20454;48.100;11.776;2022-08-04T19:46:43;980.85;;;893.97;;
34184;SDS011;20454;48.100;11.776;2022-08-04T19:49:10;1035.80;;;945.17;;
34184;SDS011;20454;48.100;11.776;2022-08-04T19:51:37;946.15;;;861.63;;
34184;SDS011;20454;48.100;11.776;2022-08-04T19:54:03;977.85;;;891.80;;
34184;SDS011;20454;48.100;11.776;2022-08-04T19:56:30;970.40;;;884.60;;
34184;SDS011;20454;48.100;11.776;2022-08-04T19:58:55;934.75;;;850.88;;
34184;SDS011;20454;48.100;11.776;2022-08-04T20:01:23;949.63;;;865.25;;
34184;SDS011;20454;48.100;11.776;2022-08-04T20:03:48;944.53;;;860.50;;
34184;SDS011;20454;48.100;11.776;2022-08-04T20:06:14;940.78;;;856.95;;
34184;SDS011;20454;48.100;11.776;2022-08-04T20:08:40;941.35;;;857.47;;
34184;SDS011;20454;48.100;11.776;2022-08-04T20:11:05;941.03;;;857.10;;
34184;SDS011;20454;48.100;11.776;2022-08-04T20:13:31;943.20;;;858.58;;
34184;SDS011;20454;48.100;11.776;2022-08-04T20:15:57;948.13;;;863.60;;
34184;SDS011;20454;48.100;11.776;2022-08-04T20:18:24;993.70;;;905.47;;
34184;SDS011;20454;48.100;11.776;2022-08-04T20:20:52;972.25;;;885.75;;
34184;SDS011;20454;48.100;11.776;2022-08-04T20:23:18;948.28;;;863.28;;
34184;SDS011;20454;48.100;11.776;2022-08-04T20:25:44;913.08;;;830.13;;
34184;SDS011;20454;48.100;11.776;2022-08-04T20:28:10;900.47;;;817.88;;
34184;SDS011;20454;48.100;11.776;2022-08-04T20:30:35;911.58;;;828.20;;
34184;SDS011;20454;48.100;11.776;2022-08-04T20:33:01;894.20;;;811.72;;
34184;SDS011;20454;48.100;11.776;2022-08-04T20:35:28;887.13;;;804.78;;
34184;SDS011;20454;48.100;11.776;2022-08-04T20:37:54;899.38;;;816.53;;
34184;SDS011;20454;48.100;11.776;2022-08-04T20:40:20;883.05;;;800.90;;
34184;SDS011;20454;48.100;11.776;2022-08-04T20:42:46;885.67;;;803.60;;
34184;SDS011;20454;48.100;11.776;2022-08-04T20:45:11;882.90;;;800.95;;
34184;SDS011;20454;48.100;11.776;2022-08-04T20:47:37;895.58;;;813.25;;
34184;SDS011;20454;48.100;11.776;2022-08-04T20:50:04;880.80;;;798.88;;
34184;SDS011;20454;48.100;11.776;2022-08-04T20:52:31;883.28;;;801.50;;
34184;SDS011;20454;48.100;11.776;2022-08-04T20:54:58;866.47;;;785.13;;
34184;SDS011;20454;48.100;11.776;2022-08-04T20:57:28;889.38;;;807.15;;
34184;SDS011;20454;48.100;11.776;2022-08-04T20:59:54;891.13;;;808.78;;
34184;SDS011;20454;48.100;11.776;2022-08-04T21:02:20;875.20;;;793.97;;
34184;SDS011;20454;48.100;11.776;2022-08-04T21:04:46;846.28;;;765.53;;
34184;SDS011;20454;48.100;11.776;2022-08-04T21:07:13;872.78;;;791.00;;
34184;SDS011;20454;48.100;11.776;2022-08-04T21:09:39;928.58;;;842.60;;
34184;SDS011;20454;48.100;11.776;2022-08-04T21:12:08;942.05;;;855.75;;
34184;SDS011;20454;48.100;11.776;2022-08-04T21:14:36;900.92;;;817.53;;
34184;SDS011;20454;48.100;11.776;2022-08-04T21:17:02;894.80;;;811.80;;
34184;SDS011;20454;48.100;11.776;2022-08-04T21:19:28;889.58;;;806.90;;
34184;SDS011;20454;48.100;11.776;2022-08-04T21:21:55;858.63;;;777.47;;
34184;SDS011;20454;48.100;11.776;2022-08-04T21:24:22;850.33;;;769.83;;
34184;SDS011;20454;48.100;11.776;2022-08-04T21:26:49;863.42;;;782.88;;
34184;SDS011;20454;48.100;11.776;2022-08-04T21:29:17;889.65;;;807.33;;
34184;SDS011;20454;48.100;11.776;2022-08-04T21:31:44;872.75;;;791.10;;
34184;SDS011;20454;48.100;11.776;2022-08-04T21:34:10;874.03;;;793.13;;
34184;SDS011;20454;48.100;11.776;2022-08-04T21:36:38;858.30;;;778.08;;
34184;SDS011;20454;48.100;11.776;2022-08-04T21:39:04;859.20;;;778.65;;
34184;SDS011;20454;48.100;11.776;2022-08-04T21:41:31;835.42;;;756.10;;
34184;SDS011;20454;48.100;11.776;2022-08-04T21:43:57;835.97;;;756.88;;
34184;SDS011;20454;48.100;11.776;2022-08-04T21:46:23;844.97;;;765.35;;
34184;SDS011;20454;48.100;11.776;2022-08-04T21:48:49;845.40;;;765.72;;
34184;SDS011;20454;48.100;11.776;2022-08-04T21:51:16;834.72;;;755.45;;
34184;SDS011;20454;48.100;11.776;2022-08-04T21:53:50;860.60;;;779.47;;
34184;SDS011;20454;48.100;11.776;2022-08-04T21:56:16;802.38;;;724.58;;
34184;SDS011;20454;48.100;11.776;2022-08-04T21:58:43;786.72;;;709.42;;
34184;SDS011;20454;48.100;11.776;2022-08-04T22:01:10;778.60;;;701.58;;
34184;SDS011;20454;48.100;11.776;2022-08-04T22:03:41;762.25;;;685.92;;
34184;SDS011;20454;48.100;11.776;2022-08-04T22:06:09;765.38;;;688.88;;
34184;SDS011;20454;48.100;11.776;2022-08-04T22:08:39;765.10;;;688.60;;
34184;SDS011;20454;48.100;11.776;2022-08-04T22:11:22;754.10;;;678.13;;
34184;SDS011;20454;48.100;11.776;2022-08-04T22:14:02;758.90;;;682.58;;
34184;SDS011;20454;48.100;11.776;2022-08-04T22:16:36;752.58;;;676.45;;
34184;SDS011;20454;48.100;11.776;2022-08-04T22:19:03;748.15;;;672.35;;
34184;SDS011;20454;48.100;11.776;2022-08-04T22:21:29;744.80;;;668.85;;
34184;SDS011;20454;48.100;11.776;2022-08-04T22:23:56;748.15;;;672.47;;
34184;SDS011;20454;48.100;11.776;2022-08-04T22:26:26;759.35;;;683.13;;
34184;SDS011;20454;48.100;11.776;2022-08-04T22:28:54;756.15;;;679.85;;
34184;SDS011;20454;48.100;11.776;2022-08-04T22:31:22;762.72;;;685.85;;
34184;SDS011;20454;48.100;11.776;2022-08-04T22:33:49;757.70;;;681.00;;
34184;SDS011;20454;48.100;11.776;2022-08-04T22:36:16;770.53;;;693.40;;
34184;SDS011;20454;48.100;11.776;2022-08-04T22:38:43;762.75;;;685.90;;
34184;SDS011;20454;48.100;11.776;2022-08-04T22:41:10;763.42;;;686.60;;
34184;SDS011;20454;48.100;11.776;2022-08-04T22:43:39;760.13;;;683.35;;
34184;SDS011;20454;48.100;11.776;2022-08-04T22:46:07;758.28;;;681.45;;
34184;SDS011;20454;48.100;11.776;2022-08-04T22:48:46;784.88;;;707.30;;
34184;SDS011;20454;48.100;11.776;2022-08-04T22:51:13;791.75;;;713.75;;
34184;SDS011;20454;48.100;11.776;2022-08-04T22:53:40;756.65;;;680.25;;
34184;SDS011;20454;48.100;11.776;2022-08-04T22:56:06;739.67;;;663.55;;
34184;SDS011;20454;48.100;11.776;2022-08-04T22:58:33;765.05;;;688.08;;
34184;SDS011;20454;48.100;11.776;2022-08-04T23:01:00;793.80;;;715.35;;
34184;SDS011;20454;48.100;11.776;2022-08-04T23:03:26;761.75;;;685.08;;
34184;SDS011;20454;48.100;11.776;2022-08-04T23:05:52;776.92;;;700.00;;
34184;SDS011;20454;48.100;11.776;2022-08-04T23:08:17;758.10;;;682.28;;
34184;SDS011;20454;48.100;11.776;2022-08-04T23:10:44;762.10;;;686.00;;
34184;SDS011;20454;48.100;11.776;2022-08-04T23:13:10;727.13;;;652.75;;
34184;SDS011;20454;48.100;11.776;2022-08-04T23:15:37;767.95;;;691.78;;
34184;SDS011;20454;48.100;11.776;2022-08-04T23:18:04;758.80;;;682.78;;
34184;SDS011;20454;48.100;11.776;2022-08-04T23:20:31;794.22;;;716.53;;
34184;SDS011;20454;48.100;11.776;2022-08-04T23:22:57;768.45;;;691.90;;
34184;SDS011;20454;48.100;11.776;2022-08-04T23:25:24;756.58;;;680.83;;
34184;SDS011;20454;48.100;11.776;2022-08-04T23:27:49;761.83;;;685.65;;
34184;SDS011;20454;48.100;11.776;2022-08-04T23:30:15;776.13;;;699.35;;
34184;SDS011;20454;48.100;11.776;2022-08-04T23:32:43;762.13;;;685.78;;
34184;SDS011;20454;48.100;11.776;2022-08-04T23:35:09;755.28;;;679.20;;
34184;SDS011;20454;48.100;11.776;2022-08-04T23:37:35;771.35;;;694.28;;
34184;SDS011;20454;48.100;11.776;2022-08-04T23:40:01;756.70;;;680.40;;
34184;SDS011;20454;48.100;11.776;2022-08-04T23:42:28;771.50;;;694.88;;
34184;SDS011;20454;48.100;11.776;2022-08-04T23:44:54;766.70;;;690.15;;
34184;SDS011;20454;48.100;11.776;2022-08-04T23:47:20;760.40;;;684.28;;
34184;SDS011;20454;48.100;11.776;2022-08-04T23:49:46;755.72;;;679.67;;
34184;SDS011;20454;48.100;11.776;2022-08-04T23:52:13;763.20;;;686.92;;
34184;SDS011;20454;48.100;11.776;2022-08-04T23:54:41;783.75;;;706.58;;
34184;SDS011;20454;48.100;11.776;2022-08-04T23:57:07;778.47;;;701.45;;
34184;SDS011;20454;48.100;11.776;2022-08-04T23:59:35;762.25;;;685.90;;
